Cremona, Canada
Current Conditions -  °F | °C
As of 1:00 PM on Thursday 30 Oct 2014 (Local Time) from CYBW Reporting Station
Haze Haze  
Wind Chill: 19°   Ceiling: 300
Heat Index: 28°   Visibility: 1.2mi
Dew Point: 28°   Wind: 10mph
Humidity: 100%   Direction: 140°SE
Pressure: 30.12"   Gusts: NA
Location:  51.55°N, 114.47°W
Report Text: CYBW 301900Z AUTO 14009KT 1 1/4SM R35/2600V4500FT/ BR OVC003 M02/M02 A3012 RMK VIS VRB 5/8-3 SLP253
Loading
Personal Weather Stations






























Interactive Weather Map
Tropical Storm Tracking
New forecast layout! Learn more

10-Day Weather Forecast

Advertisements
Track Severe Weather on mobile